Change the Weather History Date:

Monday, May 27, 2013

  Actual Average (KTYR) Record (KTYR)
Temperature  
Mean Temperature 79 °F 76 °F  
Max Temperature 87 °F 85 °F 98 °F (1896)
Min Temperature 71 °F 67 °F 42 °F (1961)
Degree Days  
Heating Degree Days 0 0  
Month to date heating degree days 6  
Since 1 July heating degree days 2268  
Cooling Degree Days 14 11  
Month to date cooling degree days 212  
Year to date cooling degree days 324  
Growing Degree Days 29 (Base 50)    
Moisture  
Dew Point 69 °F    
Average Humidity 73    
Maximum Humidity 94    
Minimum Humidity 51    
Precipitation  
Precipitation 0.00 in 0.18 in 1.63 in (1944)
Month to date precipitation 4.04  
Year to date precipitation 18.20  
Snow  
Snow 0.00 in - - ()
Month to date snowfall  
Since 1 July snowfall  
Snow Depth -    
Sea Level Pressure  
Sea Level Pressure 29.97 in    
Wind  
Wind Speed 7 mph (South)    
Max Wind Speed 12 mph    
Max Gust Speed 20 mph    
Visibility 10 miles    
Events      
T = Trace of Precipitation, MM = Missing Value Source: NWS Daily Summary

Daily Weather History Graph

Daily Weather History Graph

Search for Another Location

Airport or City:

Trip Planner

Search our weather history database for the weather conditions in past years. The results will help you decide how hot, cold, wet, or windy it might be!

Date:

Astronomy

May. 27, 2013 Rise Set
Actual Time 6:16 AM CDT 8:22 PM CDT
Civil Twilight 5:48 AM CDT 8:50 PM CDT
Nautical Twilight 5:14 AM CDT 9:24 PM CDT
Astronomical Twilight 4:38 AM CDT 10:00 PM CDT
Moon 11:06 PM CDT (5/27) 8:52 AM CDT (5/27)
Length of Visible Light 15h 01m
Length of Day
14h 05m
Waning Gibbous, 91% of the Moon is Illuminated
May 27
Waning Gibbous
May 31
Last Quarter
Jun 8
New
Jun 16
First Quarter
Jun 23
Full

Hourly Weather History & Observations

Time (CDT) Temp. Heat Index Dew Point Humidity Pressure Visibility Wind Dir Wind Speed Gust Speed Precip Events Conditions
12:15 AM 75.2 °F - 71.6 °F 89% 30.04 in 10.0 mi SSE 4.6 mph - N/A   Overcast
12:35 AM 75.2 °F - 71.6 °F 89% 30.04 in 10.0 mi SSE 4.6 mph - N/A   Overcast
12:55 AM 75.2 °F - 71.6 °F 89% 30.03 in 10.0 mi SSE 5.8 mph - N/A   Overcast
1:15 AM 75.2 °F - 71.6 °F 89% 30.03 in 10.0 mi South 6.9 mph - N/A   Overcast
1:35 AM 75.2 °F - 69.8 °F 83% 30.02 in 10.0 mi SSE 5.8 mph - N/A   Overcast
1:55 AM 73.4 °F - 69.8 °F 88% 30.02 in 10.0 mi SSE 5.8 mph - N/A   Overcast
2:15 AM 73.4 °F - 69.8 °F 88% 30.02 in 10.0 mi SSE 5.8 mph - N/A   Overcast
2:35 AM 73.4 °F - 69.8 °F 88% 30.02 in 10.0 mi South 5.8 mph - N/A   Overcast
2:55 AM 73.4 °F - 69.8 °F 88% 30.01 in 10.0 mi South 8.1 mph - N/A   Overcast
3:15 AM 73.4 °F - 69.8 °F 88% 30.00 in 10.0 mi South 5.8 mph - N/A   Overcast
3:35 AM 73.4 °F - 69.8 °F 88% 30.00 in 10.0 mi South 5.8 mph - N/A   Overcast
3:55 AM 73.4 °F - 69.8 °F 88% 30.00 in 10.0 mi South 5.8 mph - N/A   Overcast
4:15 AM 73.4 °F - 69.8 °F 88% 29.99 in 10.0 mi South 5.8 mph - N/A   Overcast
4:35 AM 73.4 °F - 69.8 °F 88% 29.99 in 10.0 mi South 4.6 mph - N/A   Overcast
4:55 AM 73.4 °F - 69.8 °F 88% 29.99 in 10.0 mi South 5.8 mph - N/A   Overcast
5:15 AM 73.4 °F - 69.8 °F 88% 29.99 in 10.0 mi South 6.9 mph - N/A   Overcast
5:35 AM 73.4 °F - 69.8 °F 88% 29.99 in 10.0 mi South 6.9 mph - N/A   Overcast
5:55 AM 73.4 °F - 69.8 °F 88% 30.00 in 10.0 mi South 6.9 mph - N/A   Overcast
6:15 AM 71.6 °F - 69.8 °F 94% 30.00 in 9.0 mi SSE 8.1 mph - N/A   Overcast
6:35 AM 71.6 °F - 69.8 °F 94% 30.01 in 10.0 mi South 4.6 mph - N/A   Overcast
6:55 AM 71.6 °F - 69.8 °F 94% 30.02 in 9.0 mi South 5.8 mph - N/A   Overcast
7:15 AM 73.4 °F - 69.8 °F 88% 30.02 in 9.0 mi South 5.8 mph - N/A   Overcast
7:35 AM 73.4 °F - 69.8 °F 88% 30.02 in 8.0 mi South 8.1 mph - N/A   Overcast
7:55 AM 73.4 °F - 69.8 °F 88% 30.03 in 7.0 mi South 6.9 mph - N/A   Overcast
8:15 AM 73.4 °F - 69.8 °F 88% 30.02 in 7.0 mi South 8.1 mph - N/A   Overcast
8:35 AM 73.4 °F - 69.8 °F 88% 30.03 in 7.0 mi South 11.5 mph 16.1 mph N/A   Mostly Cloudy
8:55 AM 75.2 °F - 69.8 °F 83% 30.03 in 9.0 mi South 8.1 mph - N/A   Overcast
9:15 AM 75.2 °F - 69.8 °F 83% 30.03 in 9.0 mi SSW 10.4 mph - N/A   Overcast
9:35 AM 77.0 °F - 69.8 °F 78% 30.03 in 10.0 mi SSW 11.5 mph 17.3 mph N/A   Overcast
9:55 AM 77.0 °F - 69.8 °F 78% 30.03 in 9.0 mi South 6.9 mph - N/A   Overcast
10:15 AM 77.0 °F - 69.8 °F 78% 30.03 in 10.0 mi SSW 6.9 mph - N/A   Overcast
10:35 AM 80.6 °F 83.9 °F 69.8 °F 70% 30.02 in 10.0 mi South 11.5 mph 19.6 mph N/A   Overcast
10:55 AM 80.6 °F 83.9 °F 69.8 °F 70% 30.02 in 10.0 mi SSE 10.4 mph 17.3 mph N/A   Overcast
11:15 AM 80.6 °F 83.9 °F 69.8 °F 70% 30.02 in 10.0 mi SSW 10.4 mph 17.3 mph N/A   Overcast
11:35 AM 78.8 °F - 69.8 °F 74% 30.02 in 10.0 mi South 8.1 mph - N/A   Overcast
11:55 AM 80.6 °F 83.9 °F 69.8 °F 70% 30.02 in 10.0 mi South 8.1 mph - N/A   Overcast
12:15 PM 80.6 °F 83.9 °F 69.8 °F 70% 30.02 in 10.0 mi South 6.9 mph 19.6 mph N/A   Overcast
12:35 PM 80.6 °F 83.9 °F 69.8 °F 70% 30.01 in 10.0 mi South 9.2 mph - N/A   Overcast
12:55 PM 82.4 °F 86.3 °F 69.8 °F 66% 30.00 in 10.0 mi South 9.2 mph 16.1 mph N/A   Overcast
1:15 PM 82.4 °F 86.3 °F 69.8 °F 66% 29.99 in 10.0 mi South 6.9 mph - N/A   Overcast
1:35 PM 82.4 °F 86.3 °F 69.8 °F 66% 29.98 in 10.0 mi South 8.1 mph - N/A   Mostly Cloudy
1:55 PM 84.2 °F 88.4 °F 69.8 °F 62% 29.97 in 10.0 mi SSE 10.4 mph 17.3 mph N/A   Overcast
2:15 PM 84.2 °F 87.3 °F 68.0 °F 58% 29.97 in 10.0 mi South 11.5 mph 17.3 mph N/A   Overcast
2:35 PM 84.2 °F 87.3 °F 68.0 °F 58% 29.97 in 10.0 mi South 6.9 mph 17.3 mph N/A   Overcast
2:55 PM 84.2 °F 87.3 °F 68.0 °F 58% 29.96 in 10.0 mi South 11.5 mph 17.3 mph N/A   Mostly Cloudy
3:15 PM 84.2 °F 87.3 °F 68.0 °F 58% 29.95 in 10.0 mi South 10.4 mph 16.1 mph N/A   Overcast
3:35 PM 86.0 °F 89.4 °F 68.0 °F 55% 29.95 in 10.0 mi South 8.1 mph - N/A   Overcast
3:55 PM 84.2 °F 87.3 °F 68.0 °F 58% 29.94 in 10.0 mi South 9.2 mph 17.3 mph N/A   Mostly Cloudy
4:15 PM 87.8 °F 91.4 °F 68.0 °F 52% 29.93 in 10.0 mi South 11.5 mph 16.1 mph N/A   Overcast
4:35 PM 87.8 °F 91.4 °F 68.0 °F 52% 29.92 in 10.0 mi South 11.5 mph 17.3 mph N/A   Overcast
4:55 PM 86.0 °F 88.2 °F 66.2 °F 51% 29.92 in 10.0 mi South 11.5 mph 17.3 mph N/A   Overcast
5:15 PM 86.0 °F 89.4 °F 68.0 °F 55% 29.91 in 10.0 mi SSE 5.8 mph 16.1 mph N/A   Overcast
5:35 PM 86.0 °F 89.4 °F 68.0 °F 55% 29.90 in 10.0 mi SSE 6.9 mph - N/A   Overcast
5:55 PM 86.0 °F 89.4 °F 68.0 °F 55% 29.90 in 10.0 mi SSE 6.9 mph - N/A   Overcast
6:15 PM 86.0 °F 89.4 °F 68.0 °F 55% 29.89 in 10.0 mi SSE 5.8 mph - N/A   Overcast
6:35 PM 86.0 °F 88.2 °F 66.2 °F 51% 29.88 in 10.0 mi SSE 8.1 mph - N/A   Overcast
6:55 PM 84.2 °F 86.6 °F 66.2 °F 55% 29.87 in 10.0 mi SSE 6.9 mph - N/A   Overcast
7:15 PM 84.2 °F 86.6 °F 66.2 °F 55% 29.86 in 10.0 mi SSE 4.6 mph - N/A   Overcast
7:35 PM 84.2 °F 86.6 °F 66.2 °F 55% 29.86 in 10.0 mi SSE 3.5 mph - N/A   Overcast
7:55 PM 82.4 °F 84.6 °F 66.2 °F 58% 29.86 in 10.0 mi SSE 3.5 mph - N/A   Overcast
8:15 PM 80.6 °F 82.7 °F 66.2 °F 61% 29.87 in 10.0 mi SSE 3.5 mph - N/A   Overcast
8:35 PM 80.6 °F 82.7 °F 66.2 °F 61% 29.88 in 10.0 mi Calm Calm - N/A   Overcast
8:55 PM 78.8 °F - 68.0 °F 69% 29.89 in 10.0 mi Calm Calm - N/A   Overcast
9:15 PM 78.8 °F - 68.0 °F 69% 29.89 in 10.0 mi SE 4.6 mph - N/A   Overcast
9:35 PM 78.8 °F - 68.0 °F 69% 29.89 in 10.0 mi SE 3.5 mph - N/A   Overcast
9:55 PM 78.8 °F - 68.0 °F 69% 29.89 in 10.0 mi SE 4.6 mph - N/A   Overcast
10:15 PM 78.8 °F - 68.0 °F 69% 29.89 in 10.0 mi SSE 4.6 mph - N/A   Overcast
10:35 PM 80.6 °F 83.9 °F 69.8 °F 70% 29.91 in 10.0 mi SSE 6.9 mph - N/A   Overcast
10:55 PM 80.6 °F 83.9 °F 69.8 °F 70% 29.91 in 10.0 mi SSE 10.4 mph - N/A   Overcast
11:15 PM 78.8 °F - 69.8 °F 74% 29.92 in 8.0 mi SSE 9.2 mph 16.1 mph N/A   Overcast
11:35 PM 78.8 °F - 69.8 °F 74% 29.92 in 9.0 mi SSE 5.8 mph - N/A   Overcast
11:55 PM 78.8 °F - 69.8 °F 74% 29.92 in 10.0 mi SSE 8.1 mph 16.1 mph N/A   Overcast